Terminal Aerodrome Forecast
Issued by NWS Melbourne, FL

Home | Current Version | Previous Version | Text Only | Print | Product List | Glossary On
Versions: 1 2 3 4 5 6 7 8 9 10 11 12 13 14 15 16
000
FTUS42 KMLB 240523
TAFMLB
TAF
KMLB 240523Z 2406/2506 08013KT P6SM VCSH FEW018 SCT025
     FM241400 10012KT P6SM FEW025 SCT040
     FM241700 11016G23KT P6SM FEW040
     FM250000 09016KT P6SM SCT020=

USA.gov is the U.S. government's official web portal to all federal, state and local government web resources and services.